Time;durP1;ratioP1;P1;durP2;ratioP2;P2;SDS_P1;SDS_P2;PMS_P1;PMS_P2;Temp;Humidity;BMP_temperature;BMP_pressure;BME280_temperature;BME280_humidity;BME280_pressure;Samples;Min_cycle;Max_cycle;Signal;HPM_P1;HPM_P2
2021/03/31 00:01:38;;;;;;;17.50;9.07;;;;;;;5.00;71.08;97763.50;5018921;28;20042;-79
2021/03/31 00:04:05;;;;;;;13.40;8.20;;;;;;;4.26;73.80;97755.63;5018666;28;20049;-79
2021/03/31 00:06:33;;;;;;;;;;;;;;;4.27;74.09;97751.28;5013729;28;20096;-79
2021/03/31 00:08:59;;;;;;;16.85;7.45;;;;;;;4.13;73.65;97743.66;5016353;28;19922;-78
2021/03/31 00:11:27;;;;;;;14.52;8.85;;;;;;;4.19;73.71;97741.50;5032437;28;20038;-79
2021/03/31 00:13:58;;;;;;;11.32;7.72;;;;;;;4.40;72.77;97740.97;5019059;28;20033;-79
2021/03/31 00:16:24;;;;;;;14.70;8.88;;;;;;;4.55;71.85;97732.22;5003254;28;20125;-79
2021/03/31 00:18:51;;;;;;;17.55;9.10;;;;;;;4.49;72.19;97733.47;5018879;28;20498;-79
2021/03/31 00:21:17;;;;;;;15.73;8.40;;;;;;;4.28;73.25;97728.00;5010554;28;20042;-77
2021/03/31 00:23:44;;;;;;;20.58;8.50;;;;;;;4.37;73.79;97736.03;5016628;28;20056;-78
2021/03/31 00:26:12;;;;;;;18.92;9.27;;;;;;;4.40;74.48;97731.50;5015424;28;20108;-78
2021/03/31 00:28:38;;;;;;;;;;;;;;;4.40;73.51;97731.50;5017011;28;20053;-79
2021/03/31 00:31:04;;;;;;;18.27;8.85;;;;;;;4.53;72.42;97726.34;5020352;28;19922;-79
2021/03/31 00:33:32;;;;;;;18.13;9.60;;;;;;;4.31;74.14;97721.00;5027826;28;20436;-79
2021/03/31 00:35:58;;;;;;;15.25;9.80;;;;;;;4.31;73.57;97726.16;5017677;28;20056;-79
2021/03/31 00:38:24;;;;;;;15.40;9.50;;;;;;;4.28;74.23;97722.03;5029048;28;20046;-78
2021/03/31 00:40:53;;;;;;;18.23;9.70;;;;;;;4.10;75.27;97728.41;5012800;28;20026;-79
2021/03/31 00:43:23;;;;;;;18.73;9.60;;;;;;;4.12;74.82;97722.22;5017316;28;20131;-79
2021/03/31 00:45:49;;;;;;;16.67;9.98;;;;;;;4.21;74.02;97713.88;5018387;28;20064;-78
2021/03/31 00:48:16;;;;;;;17.85;10.48;;;;;;;4.16;74.49;97717.69;5018738;28;20076;-79
2021/03/31 00:50:45;;;;;;;18.77;10.50;;;;;;;4.20;73.66;97708.81;5018533;28;20049;-80
2021/03/31 00:53:17;;;;;;;18.50;10.98;;;;;;;4.08;74.79;97716.47;5034285;28;20049;-78
2021/03/31 00:55:45;;;;;;;15.70;9.65;;;;;;;4.35;73.53;97714.69;5016258;28;20145;-79
2021/03/31 00:58:14;;;;;;;17.27;10.38;;;;;;;3.84;75.42;97713.75;5012991;28;20125;-79
2021/03/31 01:00:40;;;;;;;14.40;9.60;;;;;;;3.31;76.42;97707.75;5004896;28;20058;-78
2021/03/31 01:03:09;;;;;;;9.77;5.88;;;;;;;3.19;75.81;97711.91;5030818;28;20038;-79
2021/03/31 01:05:35;;;;;;;9.73;5.80;;;;;;;2.99;76.08;97715.75;5013140;28;20042;-77
2021/03/31 01:08:02;;;;;;;11.20;6.57;;;;;;;2.80;78.07;97710.09;5012583;28;20046;-77
2021/03/31 01:10:37;;;;;;;12.37;7.23;;;;;;;2.89;77.03;97716.41;5012409;28;20068;-76
2021/03/31 01:13:29;;;;;;;12.73;7.70;;;;;;;2.95;77.79;97723.75;5015078;28;20454;-76
2021/03/31 01:16:34;;;;;;;14.65;6.38;;;;;;;3.15;76.29;97701.91;5010194;28;20603;-77
2021/03/31 01:19:38;;;;;;;12.45;6.47;;;;;;;3.39;76.13;97717.56;5012716;28;20060;-78
2021/03/31 01:22:23;;;;;;;9.73;6.43;;;;;;;3.36;75.75;97708.25;5029384;28;20070;-77
2021/03/31 01:25:07;;;;;;;13.27;6.90;;;;;;;3.22;76.54;97703.19;5032887;28;20482;-79
2021/03/31 01:27:49;;;;;;;14.40;7.18;;;;;;;2.99;77.80;97705.44;5033564;28;20038;-79
2021/03/31 01:30:27;;;;;;;20.75;7.65;;;;;;;3.17;77.04;97702.63;5033641;28;20482;-79
2021/03/31 01:33:21;;;;;;;13.87;7.73;;;;;;;3.28;78.02;97707.09;5031134;28;20042;-78
2021/03/31 01:35:50;;;;;;;13.43;6.90;;;;;;;3.26;76.60;97697.75;5013441;28;20291;-78
2021/03/31 01:38:19;;;;;;;14.52;8.00;;;;;;;3.15;77.11;97689.03;5012981;28;20049;-77
2021/03/31 01:40:48;;;;;;;14.23;7.88;;;;;;;3.14;77.24;97690.81;5013884;28;20030;-77
2021/03/31 01:43:21;;;;;;;12.35;7.75;;;;;;;3.19;76.36;97691.31;5008388;28;20100;-77
2021/03/31 01:45:52;;;;;;;13.70;8.25;;;;;;;3.32;75.56;97683.63;5007871;28;20065;-76
2021/03/31 01:48:32;;;;;;;14.10;7.93;;;;;;;3.30;76.22;97676.94;5026487;28;20053;-77
2021/03/31 01:51:05;;;;;;;13.75;7.72;;;;;;;3.29;77.26;97694.16;5006746;28;20046;-77
2021/03/31 01:53:33;;;;;;;12.52;7.60;;;;;;;3.37;76.30;97685.94;5029512;28;21042;-78
2021/03/31 01:56:00;;;;;;;11.82;7.93;;;;;;;3.43;76.51;97676.06;5012502;28;20042;-79
2021/03/31 01:58:30;;;;;;;17.90;8.60;;;;;;;3.30;76.64;97679.53;5012526;28;20049;-78
2021/03/31 02:00:57;;;;;;;12.60;7.60;;;;;;;3.34;76.60;97678.41;5012062;28;20053;-78
2021/03/31 02:03:24;;;;;;;16.83;8.13;;;;;;;3.29;76.72;97686.44;5031114;28;20041;-79
2021/03/31 02:05:54;;;;;;;16.67;8.38;;;;;;;3.08;77.32;97656.91;5008995;28;20402;-78
2021/03/31 02:08:22;;;;;;;16.90;8.93;;;;;;;3.52;76.96;97682.38;5015085;28;20185;-78
2021/03/31 02:10:49;;;;;;;15.45;8.38;;;;;;;3.68;75.79;97671.88;5014193;28;20033;-77
2021/03/31 02:13:16;;;;;;;15.75;7.50;;;;;;;3.13;76.17;97665.97;5012454;28;20042;-78
2021/03/31 02:15:48;;;;;;;13.55;7.95;;;;;;;3.17;77.23;97671.75;5012789;28;20118;-78
2021/03/31 02:18:17;;;;;;;13.23;8.13;;;;;;;2.92;77.98;97675.06;5015906;28;20418;-78
2021/03/31 02:20:46;;;;;;;18.25;8.35;;;;;;;2.62;79.68;97678.59;5032995;28;20050;-78
2021/03/31 02:23:14;;;;;;;18.63;8.45;;;;;;;2.82;78.43;97682.53;5018329;28;20050;-77
2021/03/31 02:25:40;;;;;;;13.70;8.02;;;;;;;2.81;78.83;97688.59;5000244;28;20056;-77
2021/03/31 02:28:06;;;;;;;12.10;6.90;;;;;;;2.84;77.46;97683.28;5015871;28;20057;-78
2021/03/31 02:30:33;;;;;;;15.07;9.38;;;;;;;2.50;78.21;97666.50;5023397;28;20110;-78
2021/03/31 02:33:05;;;;;;;14.68;8.20;;;;;;;2.70;78.55;97693.56;5014173;28;20088;-78
2021/03/31 02:35:33;;;;;;;13.77;8.43;;;;;;;2.68;78.73;97674.84;5014882;28;20042;-77
2021/03/31 02:38:04;;;;;;;19.00;8.50;;;;;;;2.49;79.68;97686.25;5019000;28;20050;-78
2021/03/31 02:40:32;;;;;;;13.98;7.50;;;;;;;2.59;79.53;97687.34;5016540;28;20282;-77
2021/03/31 02:43:01;;;;;;;13.30;7.70;;;;;;;3.14;76.70;97685.66;5015037;28;20502;-79
2021/03/31 02:45:30;;;;;;;13.27;7.20;;;;;;;2.55;78.13;97678.16;5016759;28;20491;-79
2021/03/31 02:47:59;;;;;;;15.55;8.95;;;;;;;2.47;79.61;97675.22;5013807;28;20465;-78
2021/03/31 02:50:28;;;;;;;15.32;8.27;;;;;;;2.71;79.21;97684.94;5003102;28;20112;-77
2021/03/31 02:52:55;;;;;;;13.57;9.00;;;;;;;2.74;78.77;97670.16;5017378;28;20045;-78
2021/03/31 02:55:23;;;;;;;16.23;8.20;;;;;;;2.71;78.02;97664.34;5017837;28;20125;-77
2021/03/31 02:57:51;;;;;;;16.15;7.65;;;;;;;2.61;78.48;97672.66;5015038;28;20049;-77
2021/03/31 03:00:19;;;;;;;17.88;8.70;;;;;;;2.75;77.99;97676.09;4998163;28;20129;-77
2021/03/31 03:02:46;;;;;;;15.55;8.80;;;;;;;2.32;79.35;97658.19;5015267;28;20045;-77
2021/03/31 03:05:15;;;;;;;16.13;8.65;;;;;;;2.46;79.12;97675.34;4999808;28;20076;-78
2021/03/31 03:07:42;;;;;;;15.20;7.85;;;;;;;2.40;79.04;97653.41;5017558;28;20501;-77
2021/03/31 03:10:10;;;;;;;15.20;9.30;;;;;;;2.33;79.40;97655.53;5015614;28;20046;-79
2021/03/31 03:12:48;;;;;;;15.50;8.68;;;;;;;2.56;77.83;97666.97;5011864;28;20080;-77
2021/03/31 03:15:17;;;;;;;15.35;8.45;;;;;;;2.45;78.04;97653.94;5030851;28;20045;-78
2021/03/31 03:17:43;;;;;;;19.67;7.82;;;;;;;2.63;76.84;97652.00;5030647;28;20865;-76
2021/03/31 03:20:11;;;;;;;14.13;8.73;;;;;;;2.37;78.91;97657.00;5009156;28;20661;-76
2021/03/31 03:22:39;;;;;;;13.98;8.68;;;;;;;2.32;79.50;97645.34;5014438;28;20069;-76
2021/03/31 03:25:08;;;;;;;18.08;8.10;;;;;;;2.62;78.00;97646.03;5015808;28;20049;-76
2021/03/31 03:27:36;;;;;;;14.35;8.35;;;;;;;2.49;77.79;97657.97;5013465;28;20459;-77
2021/03/31 03:30:06;;;;;;;12.57;7.88;;;;;;;2.65;77.28;97658.69;5013591;28;20738;-76
2021/03/31 03:32:33;;;;;;;15.02;7.95;;;;;;;2.73;76.72;97662.50;5014226;28;20125;-77
2021/03/31 03:35:00;;;;;;;13.90;8.55;;;;;;;2.60;77.08;97652.16;5015435;28;20057;-77
2021/03/31 03:37:26;;;;;;;16.88;9.18;;;;;;;2.37;78.52;97643.28;5017623;28;20168;-77
2021/03/31 03:39:53;;;;;;;16.15;8.23;;;;;;;2.42;77.82;97643.84;5033291;28;20049;-77
2021/03/31 03:42:21;;;;;;;16.40;8.23;;;;;;;2.69;77.04;97645.63;5031248;28;20490;-77
2021/03/31 03:44:47;;;;;;;17.95;8.40;;;;;;;2.54;76.92;97648.25;5032914;28;20045;-77
2021/03/31 03:47:17;;;;;;;14.80;8.70;;;;;;;2.38;78.70;97653.50;5013842;28;20406;-77
2021/03/31 03:49:43;;;;;;;16.35;9.05;;;;;;;2.34;78.57;97651.22;5026195;28;21866;-76
2021/03/31 03:52:10;;;;;;;18.65;9.48;;;;;;;2.24;78.64;97646.63;5026919;28;20069;-77
2021/03/31 03:54:37;;;;;;;17.77;8.73;;;;;;;2.50;78.15;97651.06;5009813;28;20054;-76
2021/03/31 03:57:05;;;;;;;12.55;8.15;;;;;;;2.58;77.10;97647.16;5010177;28;20291;-76
2021/03/31 03:59:34;;;;;;;11.93;8.00;;;;;;;2.20;78.26;97655.44;5030341;28;20403;-77
2021/03/31 04:02:01;;;;;;;19.85;10.07;;;;;;;2.00;79.65;97650.66;5013258;28;20399;-76
2021/03/31 04:04:28;;;;;;;20.95;10.00;;;;;;;1.85;80.36;97654.13;5029955;28;20457;-76
2021/03/31 04:06:58;;;;;;;25.55;9.07;;;;;;;1.87;79.50;97631.78;5012463;28;20763;-76
2021/03/31 04:09:24;;;;;;;18.98;8.43;;;;;;;1.77;79.60;97644.31;5012876;28;20121;-76
2021/03/31 04:11:51;;;;;;;15.70;9.30;;;;;;;2.15;79.51;97661.75;5012034;28;20109;-76
2021/03/31 04:14:19;;;;;;;16.45;8.57;;;;;;;2.04;79.01;97662.41;5014166;28;20128;-77
2021/03/31 04:16:48;;;;;;;15.55;8.20;;;;;;;2.27;77.80;97660.22;5009619;28;20070;-75
2021/03/31 04:19:16;;;;;;;18.77;9.82;;;;;;;2.07;79.30;97661.38;5012778;28;20065;-75
2021/03/31 04:21:42;;;;;;;;;;;;;;;1.96;79.63;97662.03;5007861;28;20038;-75
2021/03/31 04:24:15;;;;;;;29.58;10.27;;;;;;;1.73;81.57;97661.63;5026879;28;19921;-75
2021/03/31 04:26:44;;;;;;;15.50;8.82;;;;;;;1.48;80.62;97661.38;5011152;28;20049;-74
2021/03/31 04:29:12;;;;;;;16.10;8.80;;;;;;;1.54;79.93;97661.03;5013953;28;20053;-76
2021/03/31 04:31:39;;;;;;;19.85;9.68;;;;;;;1.52;80.77;97668.00;5011830;28;20065;-74
2021/03/31 04:34:08;;;;;;;16.80;8.67;;;;;;;1.68;79.72;97668.78;5008872;28;20045;-75
2021/03/31 04:36:34;;;;;;;16.60;9.80;;;;;;;1.55;80.70;97662.72;5003865;28;20125;-76
2021/03/31 04:39:05;;;;;;;16.33;10.25;;;;;;;1.48;79.88;97646.81;5009289;28;20482;-76
2021/03/31 04:41:34;;;;;;;13.80;8.93;;;;;;;1.33;81.50;97669.03;5026573;28;20125;-75
2021/03/31 04:44:03;;;;;;;20.42;10.60;;;;;;;1.50;80.77;97659.56;5010695;28;20056;-77
2021/03/31 04:46:29;;;;;;;16.02;9.57;;;;;;;1.38;81.32;97659.34;4993033;28;20092;-76
2021/03/31 04:48:55;;;;;;;16.17;9.80;;;;;;;1.64;79.98;97654.47;5010089;28;20061;-76
2021/03/31 04:51:24;;;;;;;21.42;9.27;;;;;;;1.53;79.56;97644.81;5027138;28;20434;-77
2021/03/31 04:53:50;;;;;;;14.57;8.88;;;;;;;1.68;78.69;97663.66;5009956;28;20042;-76
2021/03/31 04:56:16;;;;;;;16.65;9.00;;;;;;;1.55;79.54;97649.88;5024522;28;20081;-77
2021/03/31 04:58:46;;;;;;;17.10;9.48;;;;;;;1.52;80.44;97655.97;5008179;28;20042;-76
2021/03/31 05:01:12;;;;;;;19.05;10.00;;;;;;;1.46;79.31;97655.50;5025088;28;20493;-76
2021/03/31 05:03:38;;;;;;;18.08;9.40;;;;;;;1.53;79.36;97641.44;5009348;28;20084;-77
2021/03/31 05:06:05;;;;;;;16.80;9.98;;;;;;;1.26;80.25;97649.78;5007017;28;20102;-77
2021/03/31 05:08:32;;;;;;;17.58;8.98;;;;;;;1.61;80.32;97657.22;5009279;28;20042;-76
2021/03/31 05:10:59;;;;;;;17.80;10.15;;;;;;;1.67;80.85;97656.03;5005780;28;20042;-76
2021/03/31 05:13:25;;;;;;;14.25;8.48;;;;;;;1.66;79.88;97654.38;5026990;28;20049;-76
2021/03/31 05:15:51;;;;;;;18.00;8.98;;;;;;;1.71;79.72;97655.75;5014995;28;20585;-76
2021/03/31 05:18:18;;;;;;;14.30;8.93;;;;;;;1.68;80.17;97648.25;5009745;28;20073;-77
2021/03/31 05:20:44;;;;;;;16.17;9.30;;;;;;;1.85;79.66;97643.88;5011909;28;20764;-75
2021/03/31 05:23:11;;;;;;;48.03;11.55;;;;;;;1.93;78.71;97641.69;5032745;28;20294;-75
2021/03/31 05:25:39;;;;;;;26.65;10.50;;;;;;;1.77;80.07;97644.31;5012293;28;20085;-75
2021/03/31 05:28:07;;;;;;;24.75;10.98;;;;;;;1.71;80.11;97644.66;5018954;28;20393;-75
2021/03/31 05:30:34;;;;;;;17.75;8.48;;;;;;;2.02;79.92;97649.66;5031882;28;20041;-75
2021/03/31 05:33:02;;;;;;;14.13;7.95;;;;;;;1.96;79.89;97646.63;5014478;28;20050;-76
2021/03/31 05:35:29;;;;;;;18.50;8.77;;;;;;;2.19;79.54;97661.47;5013065;28;20129;-75
2021/03/31 05:37:55;;;;;;;16.45;8.20;;;;;;;2.36;79.45;97657.06;5013162;28;20061;-76
2021/03/31 05:40:23;;;;;;;16.92;9.40;;;;;;;2.55;78.87;97655.03;5016437;28;20049;-75
2021/03/31 05:42:49;;;;;;;;;;;;;;;2.75;78.58;97669.25;5027118;28;20075;-76
2021/03/31 05:45:15;;;;;;;17.35;8.10;;;;;;;2.75;78.02;97668.38;5009137;28;19968;-76
2021/03/31 05:47:44;;;;;;;13.18;8.32;;;;;;;2.94;78.28;97657.78;5012426;28;20058;-75
2021/03/31 05:50:15;;;;;;;13.05;7.05;;;;;;;3.13;77.07;97655.69;5023474;28;20043;-75
2021/03/31 05:52:43;;;;;;;16.40;8.95;;;;;;;3.24;77.34;97647.31;5006150;28;20047;-75
2021/03/31 05:55:12;;;;;;;15.70;7.25;;;;;;;3.54;75.53;97633.38;5010876;28;20093;-75
2021/03/31 05:57:39;;;;;;;13.25;7.80;;;;;;;3.44;76.81;97643.44;5026252;28;20055;-75
2021/03/31 06:00:11;;;;;;;12.95;7.43;;;;;;;3.63;77.48;97627.59;5029329;28;20049;-75
2021/03/31 06:02:44;;;;;;;16.90;7.65;;;;;;;4.14;74.76;97653.34;5005897;28;20053;-75
2021/03/31 06:05:13;;;;;;;14.73;7.82;;;;;;;4.23;74.40;97642.44;5014540;28;20490;-75
2021/03/31 06:07:41;;;;;;;14.07;6.60;;;;;;;4.31;73.83;97653.97;5015977;28;20056;-75
2021/03/31 06:10:35;;;;;;;17.42;6.47;;;;;;;4.67;72.73;97650.59;5012693;28;20049;-75
2021/03/31 06:13:04;;;;;;;15.05;6.82;;;;;;;5.13;71.12;97649.09;5019791;28;20055;-75
2021/03/31 06:15:39;;;;;;;16.85;6.15;;;;;;;5.44;70.37;97648.50;5022067;28;20045;-75
2021/03/31 06:18:08;;;;;;;21.70;6.35;;;;;;;5.55;69.98;97642.56;5013863;28;20046;-75
2021/03/31 06:20:54;;;;;;;42.28;7.32;;;;;;;5.76;69.81;97641.88;5010784;28;20053;-75
2021/03/31 06:23:55;;;;;;;16.92;6.80;;;;;;;6.08;68.81;97647.28;5027325;28;20046;-75
2021/03/31 06:26:26;;;;;;;54.65;8.52;;;;;;;6.43;67.54;97638.56;5003752;28;20054;-76
2021/03/31 06:29:04;;;;;;;15.23;7.25;;;;;;;6.64;67.33;97644.66;5011802;28;20042;-75
2021/03/31 06:31:48;;;;;;;18.75;8.35;;;;;;;6.94;67.01;97632.81;5029343;28;20078;-75
2021/03/31 06:34:22;;;;;;;18.50;7.10;;;;;;;7.23;65.42;97629.66;5009559;28;20050;-76
2021/03/31 06:36:55;;;;;;;20.75;7.25;;;;;;;7.38;63.27;97619.84;5012015;28;20089;-75
2021/03/31 06:39:23;;;;;;;11.63;5.75;;;;;;;7.49;62.97;97630.97;5014220;28;20069;-75
2021/03/31 06:42:08;;;;;;;17.58;7.55;;;;;;;7.70;62.49;97636.16;5012592;28;20065;-75
2021/03/31 06:44:42;;;;;;;19.95;7.15;;;;;;;7.44;67.27;97620.16;5007831;28;20045;-75
2021/03/31 06:47:24;;;;;;;14.90;6.20;;;;;;;7.56;67.41;97633.88;5012991;28;20072;-75
2021/03/31 06:49:51;;;;;;;15.00;7.47;;;;;;;7.58;67.08;97632.00;5026178;28;20516;-75
2021/03/31 06:52:17;;;;;;;13.73;6.80;;;;;;;7.70;66.52;97623.22;5014300;28;20108;-76
2021/03/31 06:54:57;;;;;;;14.45;7.07;;;;;;;7.73;64.44;97629.91;5008076;28;20050;-74
2021/03/31 06:57:28;;;;;;;11.75;6.57;;;;;;;7.91;64.32;97627.53;4995579;28;20045;-74
2021/03/31 07:00:09;;;;;;;12.40;6.43;;;;;;;8.31;65.01;97637.97;5013474;28;20501;-75
2021/03/31 07:02:37;;;;;;;21.40;6.78;;;;;;;8.16;63.63;97626.31;5010278;28;20048;-74
2021/03/31 07:05:05;;;;;;;10.90;6.22;;;;;;;8.50;62.90;97626.84;5008907;28;20928;-74
2021/03/31 07:07:38;;;;;;;17.73;6.55;;;;;;;8.68;65.13;97628.84;5031268;28;20413;-74
2021/03/31 07:10:09;;;;;;;11.38;6.05;;;;;;;9.02;63.67;97634.50;5032396;28;20041;-74
2021/03/31 07:12:55;;;;;;;12.20;6.88;;;;;;;8.98;62.72;97629.72;5017945;28;20441;-74
2021/03/31 07:15:24;;;;;;;14.05;7.72;;;;;;;9.15;63.98;97635.06;5014420;28;20068;-74
2021/03/31 07:17:54;;;;;;;11.15;6.90;;;;;;;9.34;61.59;97623.84;5031270;28;20104;-74
2021/03/31 07:20:22;;;;;;;12.18;6.47;;;;;;;9.49;60.94;97619.03;4996944;28;20092;-74
2021/03/31 07:22:49;;;;;;;19.88;7.10;;;;;;;9.93;62.38;97618.56;5011420;28;20041;-74
2021/03/31 07:25:16;;;;;;;14.13;7.63;;;;;;;10.21;60.74;97622.03;5031765;28;20080;-74
2021/03/31 07:27:44;;;;;;;;;;;;;;;10.48;57.51;97628.25;5020511;28;20042;-74
2021/03/31 07:30:16;;;;;;;14.27;6.70;;;;;;;10.39;58.60;97625.56;5028405;28;19929;-74
2021/03/31 07:33:22;;;;;;;10.90;6.82;;;;;;;11.20;55.31;97618.75;5014521;28;20394;-74
2021/03/31 07:35:53;;;;;;;15.30;6.47;;;;;;;11.44;54.98;97619.94;5003622;28;20061;-75
2021/03/31 07:38:21;;;;;;;;;;;;;;;11.28;53.53;97623.22;5026734;28;20052;-75
2021/03/31 07:40:50;;;;;;;21.92;7.35;;;;;;;11.45;53.27;97624.16;5011699;28;20301;-74
2021/03/31 07:43:22;;;;;;;15.45;7.30;;;;;;;11.91;51.47;97615.25;5012305;28;20038;-75
2021/03/31 07:46:00;;;;;;;365.60;24.95;;;;;;;12.26;52.53;97616.09;5030195;28;20053;-76
2021/03/31 07:48:27;;;;;;;21.60;7.50;;;;;;;11.88;52.87;97606.91;5013617;28;20073;-76
2021/03/31 07:50:53;;;;;;;13.38;8.05;;;;;;;11.75;51.76;97620.34;5014991;28;20065;-77
2021/03/31 07:53:23;;;;;;;25.13;7.80;;;;;;;11.79;53.59;97613.84;5014612;28;20044;-75
2021/03/31 07:55:52;;;;;;;22.67;6.95;;;;;;;12.94;51.54;97615.19;5013069;28;20045;-75
2021/03/31 07:58:21;;;;;;;12.25;6.95;;;;;;;13.48;51.67;97609.53;5016455;28;20049;-76
2021/03/31 08:03:27;;;;;;;13.00;6.70;;;;;;;14.16;49.68;97610.09;5014860;28;20029;-76
2021/03/31 08:06:15;;;;;;;21.23;6.97;;;;;;;14.42;45.22;97615.09;5026976;28;20054;-76
2021/03/31 08:08:45;;;;;;;16.50;6.88;;;;;;;14.44;45.97;97610.50;5024737;28;20049;-75
2021/03/31 08:11:33;;;;;;;16.60;6.85;;;;;;;14.54;43.66;97603.28;5029142;28;20045;-77
2021/03/31 08:14:00;;;;;;;19.02;7.15;;;;;;;14.21;44.81;97607.81;5009868;28;20117;-77
2021/03/31 08:16:33;;;;;;;14.30;6.50;;;;;;;15.11;47.15;97585.59;5025230;28;20141;-76
2021/03/31 08:19:03;;;;;;;18.63;6.93;;;;;;;15.40;41.41;97598.81;5012435;28;20064;-76
2021/03/31 08:21:31;;;;;;;15.57;5.90;;;;;;;15.56;42.17;97604.94;5018125;28;20453;-77
2021/03/31 08:23:57;;;;;;;19.42;6.85;;;;;;;15.24;43.38;97598.97;5029263;28;20073;-77
2021/03/31 08:26:30;;;;;;;14.07;7.20;;;;;;;15.42;42.36;97588.16;5011247;28;20073;-78
2021/03/31 08:28:59;;;;;;;9.13;5.90;;;;;;;15.78;42.50;97590.16;5027480;28;20042;-77
2021/03/31 08:31:28;;;;;;;21.70;7.03;;;;;;;16.34;43.40;97600.22;5029751;28;20046;-76
2021/03/31 08:33:55;;;;;;;12.63;6.85;;;;;;;16.44;42.39;97592.88;5012652;28;20073;-77
2021/03/31 08:36:22;;;;;;;15.90;6.30;;;;;;;16.85;39.05;97593.22;5012046;28;20087;-77
2021/03/31 08:38:53;;;;;;;19.75;7.03;;;;;;;17.80;38.09;97590.41;5011441;28;20497;-76
2021/03/31 08:41:22;;;;;;;13.35;6.63;;;;;;;16.66;39.81;97578.00;5011809;28;20101;-76
2021/03/31 08:43:49;;;;;;;18.42;12.60;;;;;;;16.85;40.86;97577.44;5012505;28;20084;-76
2021/03/31 08:46:31;;;;;;;17.80;6.35;;;;;;;17.99;40.65;97575.75;5009217;28;20045;-76
2021/03/31 08:48:57;;;;;;;14.15;6.35;;;;;;;18.70;38.06;97586.84;5023252;28;20069;-72
2021/03/31 08:51:24;;;;;;;13.48;6.40;;;;;;;17.38;40.05;97585.03;5009003;28;20121;-73
2021/03/31 08:53:51;;;;;;;52.08;8.70;;;;;;;17.58;39.74;97582.53;5012072;28;20061;-73
2021/03/31 08:56:22;;;;;;;10.65;5.63;;;;;;;18.54;37.54;97594.28;5009616;28;20493;-73
2021/03/31 08:58:54;;;;;;;11.30;5.53;;;;;;;17.51;37.32;97584.31;5021488;28;20393;-72
2021/03/31 09:01:30;;;;;;;12.07;5.05;;;;;;;16.66;39.09;97591.16;5007102;28;20057;-74
2021/03/31 09:04:19;;;;;;;10.10;4.88;;;;;;;19.15;40.30;97580.28;5023801;28;20125;-74
2021/03/31 09:06:45;;;;;;;12.90;4.47;;;;;;;18.95;34.04;97577.63;5021390;28;20050;-73
2021/03/31 09:09:12;;;;;;;;;;;;;;;18.26;35.97;97572.25;5008707;28;20100;-73
2021/03/31 09:11:38;;;;;;;9.77;4.25;;;;;;;20.87;32.79;97565.16;5006316;28;21815;-73
2021/03/31 09:14:24;;;;;;;13.20;4.00;;;;;;;19.14;34.46;97561.03;5023671;28;20049;-73
2021/03/31 09:17:12;;;;;;;6.70;3.22;;;;;;;18.92;30.07;97550.63;5008632;28;20045;-74
2021/03/31 09:19:41;;;;;;;9.32;3.72;;;;;;;21.22;29.23;97557.59;5022179;28;20056;-76
2021/03/31 09:22:12;;;;;;;7.00;3.50;;;;;;;23.13;26.58;97559.47;5009269;28;20038;-75
2021/03/31 09:24:52;;;;;;;11.00;4.93;;;;;;;23.69;24.55;97552.88;5006767;28;20054;-74
2021/03/31 09:27:37;;;;;;;11.07;4.93;;;;;;;26.62;21.11;97552.59;5009024;28;20454;-74
2021/03/31 09:30:07;;;;;;;9.85;5.13;;;;;;;29.32;18.10;97549.94;5009057;28;20129;-73
2021/03/31 09:32:37;;;;;;;11.68;5.00;;;;;;;30.43;17.64;97557.25;5022940;28;20050;-74
2021/03/31 09:35:07;;;;;;;9.50;4.07;;;;;;;28.46;18.85;97553.19;5009461;28;20050;-74
2021/03/31 09:37:44;;;;;;;19.00;4.57;;;;;;;31.76;17.19;97550.97;5020021;28;20052;-74
2021/03/31 09:40:30;;;;;;;6.63;3.78;;;;;;;30.90;16.12;97553.25;5009371;28;20042;-74
2021/03/31 09:43:02;;;;;;;10.07;3.88;;;;;;;27.42;18.79;97541.09;5014370;28;20042;-75
2021/03/31 09:45:31;;;;;;;9.20;3.47;;;;;;;29.08;20.14;97549.59;5008955;28;20112;-74
2021/03/31 09:47:58;;;;;;;7.35;3.55;;;;;;;30.17;17.04;97548.47;5007679;28;20132;-74
2021/03/31 09:50:26;;;;;;;9.82;3.70;;;;;;;32.72;15.30;97531.28;5009679;28;20598;-74
2021/03/31 09:52:54;;;;;;;9.50;3.50;;;;;;;35.29;13.10;97535.38;5022324;28;20053;-74
2021/03/31 09:55:22;;;;;;;16.80;4.20;;;;;;;32.12;15.20;97529.09;5006752;28;20494;-74
2021/03/31 09:57:50;;;;;;;13.88;4.10;;;;;;;31.57;14.72;97531.25;5009455;28;20054;-75
2021/03/31 10:00:17;;;;;;;5.88;3.45;;;;;;;34.69;14.25;97535.69;5009259;28;20041;-76
2021/03/31 10:02:45;;;;;;;14.02;4.95;;;;;;;32.23;15.06;97527.88;5002045;28;20057;-74
2021/03/31 10:05:25;;;;;;;6.40;3.58;;;;;;;33.37;15.79;97521.69;5008810;28;20406;-74
2021/03/31 10:07:59;;;;;;;6.85;3.70;;;;;;;33.76;13.47;97523.19;5006137;28;20046;-74
2021/03/31 10:10:39;;;;;;;8.18;3.63;;;;;;;34.70;12.90;97519.16;5004655;28;20050;-74
2021/03/31 10:13:05;;;;;;;11.18;3.72;;;;;;;34.69;14.50;97517.53;5004545;28;20402;-75
2021/03/31 10:15:32;;;;;;;14.32;4.25;;;;;;;33.00;14.28;97507.97;5011294;28;20042;-75
2021/03/31 10:17:58;;;;;;;6.70;3.90;;;;;;;32.80;14.95;97516.38;5007998;28;20100;-74
2021/03/31 10:20:32;;;;;;;8.45;3.58;;;;;;;33.66;13.55;97513.41;5012465;28;20046;-75
2021/03/31 10:22:58;;;;;;;7.18;3.50;;;;;;;36.13;13.31;97503.94;5005922;28;20073;-77
2021/03/31 10:25:44;;;;;;;8.73;3.35;;;;;;;34.46;13.95;97500.44;5010672;28;20042;-75
2021/03/31 10:28:35;;;;;;;6.18;3.60;;;;;;;35.63;12.95;97490.66;5007616;28;20062;-75
2021/03/31 10:31:31;;;;;;;10.88;3.92;;;;;;;37.62;12.50;97491.97;5010458;28;20133;-74
2021/03/31 10:34:18;;;;;;;5.72;3.50;;;;;;;37.45;12.26;97497.44;5008997;28;20504;-75
2021/03/31 10:37:05;;;;;;;7.40;4.32;;;;;;;36.61;11.99;97481.41;5008918;28;20050;-75
2021/03/31 10:50:28;;;;;;;9.35;3.70;;;;;;;36.59;10.63;97472.75;5026861;28;20478;-75
2021/03/31 10:52:58;;;;;;;12.10;4.28;;;;;;;34.83;12.19;97477.75;5012233;28;20030;-75
2021/03/31 10:55:26;;;;;;;11.02;3.55;;;;;;;36.75;12.37;97472.31;5025605;28;20042;-75
2021/03/31 10:57:53;;;;;;;8.57;3.28;;;;;;;41.93;8.66;97470.47;5011043;28;20584;-76
2021/03/31 11:00:25;;;;;;;6.68;3.33;;;;;;;40.21;9.99;97458.44;5010255;28;20064;-75
2021/03/31 11:02:53;;;;;;;8.85;3.53;;;;;;;37.35;11.28;97457.06;5010365;28;20039;-75
2021/03/31 11:05:19;;;;;;;8.50;4.10;;;;;;;38.71;10.56;97456.94;5030430;28;20096;-75
2021/03/31 11:07:45;;;;;;;12.23;3.55;;;;;;;38.03;12.89;97457.09;5007897;28;20744;-74
2021/03/31 11:10:12;;;;;;;10.95;3.72;;;;;;;38.76;11.21;97461.38;5026253;28;20108;-75
2021/03/31 11:12:43;;;;;;;7.30;3.92;;;;;;;39.78;9.79;97457.09;5011736;28;20034;-74
2021/03/31 11:15:14;;;;;;;7.75;3.53;;;;;;;40.28;10.19;97447.78;5009313;28;20080;-74
2021/03/31 11:25:49;;;;;;;29.25;4.88;;;;;;;40.09;9.47;97433.91;5019012;28;20045;-78
2021/03/31 11:28:17;;;;;;;9.40;4.32;;;;;;;41.18;10.14;97447.56;5021303;28;20062;-79
2021/03/31 11:30:52;;;;;;;12.85;4.50;;;;;;;41.04;9.24;97449.88;5030078;28;20493;-78
2021/03/31 11:33:21;;;;;;;8.32;3.97;;;;;;;40.55;10.71;97456.34;5036495;23;20049;-72
2021/03/31 11:35:48;;;;;;;10.65;3.58;;;;;;;41.40;10.85;97440.69;5029778;28;20046;-69
2021/03/31 11:38:14;;;;;;;13.63;4.20;;;;;;;41.39;10.41;97441.84;5031284;28;20045;-69
2021/03/31 11:40:41;;;;;;;8.68;3.95;;;;;;;38.01;12.16;97432.16;5024272;28;20117;-73
2021/03/31 11:43:07;;;;;;;9.00;4.05;;;;;;;39.28;13.15;97429.00;5026296;28;20077;-69
2021/03/31 11:45:34;;;;;;;7.32;4.47;;;;;;;40.43;11.82;97427.19;5032115;28;20046;-71
2021/03/31 11:48:00;;;;;;;8.48;5.18;;;;;;;37.42;12.17;97422.06;5033505;28;20531;-69
2021/03/31 11:50:26;;;;;;;7.95;4.07;;;;;;;39.74;11.96;97401.72;5037332;28;20060;-71
2021/03/31 11:52:54;;;;;;;8.07;4.68;;;;;;;39.34;12.10;97409.75;5031014;28;20077;-69
2021/03/31 11:55:22;;;;;;;12.43;4.22;;;;;;;42.55;10.76;97415.16;5033061;28;20168;-69
2021/03/31 11:57:48;;;;;;;8.00;4.03;;;;;;;40.59;10.14;97397.22;5033364;28;20042;-70
2021/03/31 12:00:15;;;;;;;9.77;4.40;;;;;;;43.03;9.12;97402.78;5034905;28;20132;-70
2021/03/31 12:02:43;;;;;;;9.60;4.03;;;;;;;41.40;12.53;97396.19;5036282;28;20056;-69
2021/03/31 12:05:10;;;;;;;5.90;4.38;;;;;;;41.26;10.59;97396.66;5032785;28;20408;-69
2021/03/31 12:07:36;;;;;;;11.13;4.68;;;;;;;43.26;10.11;97388.34;5044633;28;20054;-69
2021/03/31 12:10:07;;;;;;;8.18;4.20;;;;;;;43.37;10.11;97375.59;5035512;28;20041;-70
2021/03/31 12:12:37;;;;;;;10.10;4.45;;;;;;;37.71;13.51;97383.28;5022001;28;20113;-70